createdAt,value
2023-11-15T00:00:13.479Z,96869.53
2023-11-15T00:02:40.559Z,96860.28
2023-11-15T00:05:07.974Z,96867.66
2023-11-15T00:07:39.777Z,96870.34
2023-11-15T00:10:06.730Z,96878.06
2023-11-15T00:12:35.992Z,96876.13
2023-11-15T00:15:07.354Z,96877.31
2023-11-15T00:17:34.123Z,96880.81
2023-11-15T00:20:05.109Z,96887.78
2023-11-15T00:22:34.094Z,96883.53
2023-11-15T00:25:01.240Z,96888.19
2023-11-15T00:27:30.175Z,96884.34
2023-11-15T00:30:01.848Z,96883.91
2023-11-15T00:32:30.792Z,96883.19
2023-11-15T00:34:57.734Z,96886.25
2023-11-15T00:37:24.868Z,96887.41
2023-11-15T00:39:51.907Z,96879.38
2023-11-15T00:42:18.557Z,96888.59
2023-11-15T00:44:45.806Z,96883.94
2023-11-15T00:47:12.572Z,96884.72
2023-11-15T00:49:45.337Z,96888.31
2023-11-15T00:52:15.183Z,96894.09
2023-11-15T00:54:44.484Z,96904.06
2023-11-15T00:57:15.697Z,96909.94
2023-11-15T00:59:47.122Z,96926.34
2023-11-15T01:02:17.859Z,96927.78
2023-11-15T01:04:51.697Z,96943.75
2023-11-15T01:07:19.264Z,96946.09
2023-11-15T01:09:51.521Z,96941.84
2023-11-15T01:12:18.396Z,96947.72
2023-11-15T01:14:48.069Z,96942.56
2023-11-15T01:17:15.695Z,96944.41
2023-11-15T01:19:42.362Z,96933.78
2023-11-15T01:22:09.784Z,96947.66
2023-11-15T01:24:40.815Z,96957.81
2023-11-15T01:27:12.534Z,96961.88
2023-11-15T01:29:42.280Z,96963.09
2023-11-15T01:32:09.393Z,96957.84
2023-11-15T01:34:36.442Z,96953.13
2023-11-15T01:37:06.356Z,96960.84
2023-11-15T01:39:38.049Z,96960.28
2023-11-15T01:42:07.124Z,96959.88
2023-11-15T01:44:35.421Z,96959.81
2023-11-15T01:47:02.678Z,96974.09
2023-11-15T01:49:29.462Z,96989.09
2023-11-15T01:52:00.753Z,96997.97
2023-11-15T01:54:32.561Z,97006.06
2023-11-15T01:57:01.870Z,97002.53
2023-11-15T01:59:31.511Z,97001.78
2023-11-15T02:01:58.307Z,97007.19
2023-11-15T02:04:28.874Z,97003.75
2023-11-15T02:07:00.545Z,97006.06
2023-11-15T02:09:30.935Z,97002.59
2023-11-15T02:11:57.620Z,97002.97
2023-11-15T02:14:24.365Z,96997.22
2023-11-15T02:16:53.575Z,97002.63
2023-11-15T02:19:22.817Z,97012.34
2023-11-15T02:21:49.450Z,97012.75
2023-11-15T02:24:16.427Z,97008.50
2023-11-15T02:26:47.606Z,97007.34
2023-11-15T02:29:14.449Z,97013.16
2023-11-15T02:31:43.254Z,97013.91
2023-11-15T02:34:12.339Z,97006.56
2023-11-15T02:36:41.146Z,97012.78
2023-11-15T02:39:08.052Z,97021.31
2023-11-15T02:41:34.774Z,97017.03
2023-11-15T02:44:03.864Z,97020.91
2023-11-15T02:46:30.648Z,97030.91
2023-11-15T02:48:59.677Z,97032.09
2023-11-15T02:51:26.751Z,97033.63
2023-11-15T02:53:53.917Z,97031.31
2023-11-15T02:56:20.552Z,97045.22
2023-11-15T02:58:47.183Z,97039.41
2023-11-15T03:01:14.208Z,97039.03
2023-11-15T03:03:46.824Z,97040.19
2023-11-15T03:06:16.133Z,97030.16
2023-11-15T03:08:42.821Z,97034.00
2023-11-15T03:11:09.657Z,97037.91
2023-11-15T03:13:38.785Z,97036.75
2023-11-15T03:16:07.979Z,97046.06
2023-11-15T03:18:34.700Z,97053.88
2023-11-15T03:21:04.185Z,97048.50
2023-11-15T03:23:33.206Z,97045.00
2023-11-15T03:26:00.223Z,97038.41
2023-11-15T03:28:26.873Z,97047.66
2023-11-15T03:30:53.512Z,97055.00
2023-11-15T03:33:20.573Z,97056.94
2023-11-15T03:35:52.479Z,97054.63
2023-11-15T03:38:19.133Z,97052.72
2023-11-15T03:40:49.024Z,97056.59
2023-11-15T03:43:16.017Z,97059.69
2023-11-15T03:45:44.965Z,97050.38
2023-11-15T03:48:12.404Z,97047.69
2023-11-15T03:50:41.268Z,97044.22
2023-11-15T03:53:08.874Z,97056.59
2023-11-15T03:55:38.493Z,97053.88
2023-11-15T03:58:07.347Z,97059.28
2023-11-15T04:00:39.119Z,97063.91
2023-11-15T04:03:07.972Z,97067.72
2023-11-15T04:05:34.849Z,97073.88
2023-11-15T04:08:03.606Z,97070.38
2023-11-15T04:10:32.493Z,97079.25
2023-11-15T04:13:03.863Z,97073.88
2023-11-15T04:15:30.557Z,97079.66
2023-11-15T04:17:59.657Z,97078.84
2023-11-15T04:20:26.408Z,97084.28
2023-11-15T04:22:55.511Z,97074.63
2023-11-15T04:25:22.522Z,97088.19
2023-11-15T04:27:53.895Z,97092.50
2023-11-15T04:30:20.564Z,97102.97
2023-11-15T04:32:49.741Z,97102.19
2023-11-15T04:35:19.108Z,97102.56
2023-11-15T04:37:48.132Z,97103.34
2023-11-15T04:40:19.314Z,97105.25
2023-11-15T04:42:46.325Z,97101.44
2023-11-15T04:45:15.380Z,97105.31
2023-11-15T04:47:42.131Z,97102.59
2023-11-15T04:50:09.613Z,97104.63
2023-11-15T04:52:36.341Z,97105.81
2023-11-15T04:55:03.322Z,97111.25
2023-11-15T04:57:30.583Z,97110.56
2023-11-15T04:59:57.516Z,97099.44
2023-11-15T05:02:25.003Z,97116.84
2023-11-15T05:04:53.484Z,97109.53
2023-11-15T05:07:21.529Z,97118.47
2023-11-15T05:09:51.595Z,97124.28
2023-11-15T05:12:21.213Z,97110.00
2023-11-15T05:14:50.045Z,97119.63
2023-11-15T05:17:16.733Z,97121.19
2023-11-15T05:19:45.551Z,97126.59
2023-11-15T05:22:12.316Z,97120.41
2023-11-15T05:24:39.513Z,97120.81
2023-11-15T05:27:11.367Z,97124.28
2023-11-15T05:29:38.070Z,97115.78
2023-11-15T05:32:05.226Z,97121.56
2023-11-15T05:34:31.854Z,97121.94
2023-11-15T05:36:58.865Z,97124.59
2023-11-15T05:39:25.861Z,97108.78
2023-11-15T05:41:54.847Z,97114.63
2023-11-15T05:44:21.508Z,97126.19
2023-11-15T05:46:50.551Z,97133.16
2023-11-15T05:49:17.159Z,97130.47
2023-11-15T05:51:43.819Z,97133.97
2023-11-15T05:54:15.654Z,97137.47
2023-11-15T05:56:50.406Z,97142.47
2023-11-15T05:59:17.084Z,97147.13
2023-11-15T06:01:44.379Z,97151.38
2023-11-15T06:04:13.337Z,97159.50
2023-11-15T06:06:42.257Z,97147.91
2023-11-15T06:09:14.759Z,97156.88
2023-11-15T06:11:43.510Z,97157.69
2023-11-15T06:14:10.779Z,97161.59
2023-11-15T06:16:42.242Z,97165.84
2023-11-15T06:19:09.270Z,97157.72
2023-11-15T06:21:42.401Z,97168.53
2023-11-15T06:24:10.637Z,97166.59
2023-11-15T06:26:40.844Z,97176.25
2023-11-15T06:29:08.558Z,97187.00
2023-11-15T06:31:39.184Z,97185.06
2023-11-15T06:34:07.019Z,97195.94
2023-11-15T06:36:36.219Z,97184.78
2023-11-15T06:39:04.898Z,97197.09
2023-11-15T06:41:39.924Z,97206.28
2023-11-15T06:44:09.929Z,97206.38
2023-11-15T06:46:40.629Z,97201.78
2023-11-15T06:49:08.078Z,97213.44
2023-11-15T06:51:35.242Z,97230.03
2023-11-15T06:54:04.736Z,97229.66
2023-11-15T06:56:31.620Z,97236.63
2023-11-15T06:59:00.476Z,97235.44
2023-11-15T07:01:27.213Z,97248.22
2023-11-15T07:03:55.697Z,97240.09
2023-11-15T07:06:24.998Z,97245.88
2023-11-15T07:08:51.968Z,97244.84
2023-11-15T07:11:23.607Z,97253.75
2023-11-15T07:13:50.346Z,97245.25
2023-11-15T07:16:21.504Z,97252.09
2023-11-15T07:18:49.606Z,97263.69
2023-11-15T07:21:20.924Z,97261.41
2023-11-15T07:23:49.643Z,97255.16
2023-11-15T07:26:19.299Z,97262.44
2023-11-15T07:28:46.840Z,97269.72
2023-11-15T07:31:16.198Z,97269.78
2023-11-15T07:33:45.581Z,97270.19
2023-11-15T07:36:13.549Z,97292.19
2023-11-15T07:38:45.238Z,97288.78
2023-11-15T07:41:12.191Z,97296.06
2023-11-15T07:43:42.519Z,97293.00
2023-11-15T07:46:12.009Z,97293.34
2023-11-15T07:48:38.811Z,97296.44
2023-11-15T07:51:06.390Z,97306.31
2023-11-15T07:53:33.630Z,97299.31
2023-11-15T07:56:03.685Z,97308.09
2023-11-15T07:58:30.753Z,97308.81
2023-11-15T08:00:58.039Z,97316.75
2023-11-15T08:03:32.078Z,97319.72
2023-11-15T08:06:02.270Z,97334.81
2023-11-15T08:08:28.983Z,97332.50
2023-11-15T08:10:57.671Z,97337.53
2023-11-15T08:13:29.146Z,97342.94
2023-11-15T08:15:57.979Z,97348.00
2023-11-15T08:18:27.346Z,97345.25
2023-11-15T08:20:54.707Z,97343.25
2023-11-15T08:23:24.501Z,97345.19
2023-11-15T08:25:53.233Z,97349.50
2023-11-15T08:28:25.860Z,97358.38
2023-11-15T08:30:52.592Z,97351.78
2023-11-15T08:33:21.844Z,97359.06
2023-11-15T08:35:49.438Z,97355.88
2023-11-15T08:38:16.394Z,97355.31
2023-11-15T08:40:50.243Z,97354.31
2023-11-15T08:43:18.544Z,97361.78
2023-11-15T08:45:48.622Z,97367.47
2023-11-15T08:48:19.422Z,97364.34
2023-11-15T08:50:51.019Z,97357.44
2023-11-15T08:53:19.903Z,97362.78
2023-11-15T08:55:50.269Z,97371.34
2023-11-15T08:58:22.741Z,97373.91
2023-11-15T09:00:54.755Z,97376.25
2023-11-15T09:03:23.609Z,97383.22
2023-11-15T09:05:50.800Z,97386.44
2023-11-15T09:08:23.041Z,97390.66
2023-11-15T09:10:52.895Z,97391.63
2023-11-15T09:13:20.002Z,97397.91
2023-11-15T09:15:54.610Z,97407.38
2023-11-15T09:18:25.178Z,97405.50
2023-11-15T09:20:53.743Z,97404.59
2023-11-15T09:23:28.961Z,97403.75
2023-11-15T09:26:01.014Z,97401.53
2023-11-15T09:28:32.281Z,97408.84
2023-11-15T09:31:01.665Z,97407.28
2023-11-15T09:33:31.467Z,97418.22
2023-11-15T09:36:01.349Z,97416.91
2023-11-15T09:38:28.687Z,97419.50
2023-11-15T09:40:55.314Z,97426.66
2023-11-15T09:43:27.024Z,97433.38
2023-11-15T09:46:00.190Z,97436.56
2023-11-15T09:48:34.962Z,97429.56
2023-11-15T09:51:05.792Z,97433.09
2023-11-15T09:53:37.647Z,97425.13
2023-11-15T09:56:08.404Z,97420.81
2023-11-15T09:58:38.068Z,97422.06
2023-11-15T10:01:06.247Z,97409.66
2023-11-15T10:03:33.364Z,97416.47
2023-11-15T10:06:07.161Z,97418.28
2023-11-15T10:08:34.842Z,97418.50
2023-11-15T10:11:06.917Z,97425.59
2023-11-15T10:13:40.770Z,97434.63
2023-11-15T10:16:37.646Z,97437.00
2023-11-15T10:19:27.839Z,97431.22
2023-11-15T10:22:06.525Z,97446.72
2023-11-15T10:24:36.199Z,97428.09
2023-11-15T10:27:12.552Z,97432.63
2023-11-15T10:29:41.831Z,97426.22
2023-11-15T10:32:09.004Z,97423.38
2023-11-15T10:34:48.871Z,97422.97
2023-11-15T10:37:15.930Z,97424.50
2023-11-15T10:39:49.143Z,97429.25
2023-11-15T10:42:20.039Z,97431.69
2023-11-15T10:44:54.716Z,97422.22
2023-11-15T10:47:24.236Z,97424.63
2023-11-15T10:50:05.860Z,97424.00
2023-11-15T10:52:36.053Z,97413.84
2023-11-15T10:55:06.973Z,97405.41
2023-11-15T10:57:36.021Z,97406.31
2023-11-15T11:00:10.985Z,97401.94
2023-11-15T11:02:42.910Z,97394.66
2023-11-15T11:05:11.593Z,97396.63
2023-11-15T11:08:11.373Z,97396.03
2023-11-15T11:10:51.122Z,97406.00
2023-11-15T11:13:24.848Z,97397.81
2023-11-15T11:15:52.737Z,97395.31
2023-11-15T11:18:23.421Z,97396.72
2023-11-15T11:20:57.486Z,97386.84
2023-11-15T11:23:28.099Z,97390.25
2023-11-15T11:25:56.792Z,97379.88
2023-11-15T11:28:28.278Z,97373.53
2023-11-15T11:31:22.235Z,97369.22
2023-11-15T11:34:10.021Z,97367.63
2023-11-15T11:36:58.613Z,97370.19
2023-11-15T11:39:48.220Z,97365.69
2023-11-15T11:42:27.858Z,97362.84
2023-11-15T11:44:58.542Z,97358.09
2023-11-15T11:47:27.492Z,97354.75
2023-11-15T11:49:57.988Z,97357.59
2023-11-15T11:52:24.629Z,97343.25
2023-11-15T11:54:54.615Z,97349.53
2023-11-15T11:57:22.821Z,97344.16
2023-11-15T12:00:20.371Z,97350.53
2023-11-15T12:02:54.329Z,97347.06
2023-11-15T12:05:27.866Z,97346.69
2023-11-15T12:08:00.933Z,97355.44
2023-11-15T12:10:30.102Z,97352.66
2023-11-15T12:13:03.706Z,97354.38
2023-11-15T12:15:30.778Z,97355.38
2023-11-15T12:18:01.607Z,97360.91
2023-11-15T12:20:41.563Z,97356.53
2023-11-15T12:23:18.498Z,97360.69
2023-11-15T12:25:59.023Z,97358.09
2023-11-15T12:28:36.469Z,97359.81
2023-11-15T12:31:06.514Z,97368.09
2023-11-15T12:33:35.404Z,97371.53
2023-11-15T12:36:07.596Z,97375.56
2023-11-15T12:38:34.440Z,97371.53
2023-11-15T12:41:06.241Z,97377.63
2023-11-15T12:43:36.794Z,97374.44
2023-11-15T12:46:20.481Z,97369.91
2023-11-15T12:48:49.627Z,97367.47
2023-11-15T12:51:19.617Z,97363.09
2023-11-15T12:53:46.936Z,97362.03
2023-11-15T12:56:18.689Z,97364.94
2023-11-15T12:58:46.242Z,97354.59
2023-11-15T13:01:17.931Z,97363.56
2023-11-15T13:03:45.801Z,97353.50
2023-11-15T13:06:16.820Z,97355.66
2023-11-15T13:08:51.613Z,97358.13
2023-11-15T13:11:27.384Z,97356.31
2023-11-15T13:13:59.739Z,97361.47
2023-11-15T13:16:28.956Z,97352.47
2023-11-15T13:18:58.500Z,97351.28
2023-11-15T13:21:26.343Z,97358.56
2023-11-15T13:23:57.906Z,97362.84
2023-11-15T13:26:26.419Z,97362.19
2023-11-15T13:28:54.503Z,97366.50
2023-11-15T13:31:25.593Z,97368.19
2023-11-15T13:33:57.037Z,97365.09
2023-11-15T13:36:29.539Z,97368.97
2023-11-15T13:39:02.717Z,97358.16
2023-11-15T13:41:29.762Z,97363.09
2023-11-15T13:43:56.384Z,97362.63
2023-11-15T13:46:29.613Z,97363.34
2023-11-15T13:49:03.195Z,97372.94
2023-11-15T13:51:32.630Z,97379.63
2023-11-15T13:54:01.761Z,97378.94
2023-11-15T13:56:29.329Z,97382.06
2023-11-15T13:58:58.276Z,97385.16
2023-11-15T14:01:25.587Z,97386.28
2023-11-15T14:03:54.634Z,97378.50
2023-11-15T14:06:21.410Z,97393.56
2023-11-15T14:08:56.124Z,97387.03
2023-11-15T14:11:30.450Z,97394.78
2023-11-15T14:13:59.739Z,97398.13
2023-11-15T14:16:29.513Z,97390.44
2023-11-15T14:18:58.463Z,97395.50
2023-11-15T14:21:27.629Z,97395.56
2023-11-15T14:23:58.407Z,97391.81
2023-11-15T14:26:26.626Z,97391.47
2023-11-15T14:28:54.133Z,97391.94
2023-11-15T14:31:23.195Z,97391.19
2023-11-15T14:33:55.807Z,97396.59
2023-11-15T14:36:26.235Z,97396.59
2023-11-15T14:38:55.196Z,97406.16
2023-11-15T14:41:23.182Z,97406.94
2023-11-15T14:43:54.892Z,97406.56
2023-11-15T14:46:26.628Z,97402.41
2023-11-15T14:48:53.725Z,97402.72
2023-11-15T14:51:25.300Z,97400.06
2023-11-15T14:53:56.913Z,97413.97
2023-11-15T14:56:24.040Z,97407.50
2023-11-15T14:58:55.353Z,97416.44
2023-11-15T15:01:28.785Z,97416.06
2023-11-15T15:03:55.864Z,97422.69
2023-11-15T15:06:23.104Z,97433.59
2023-11-15T15:08:50.428Z,97432.06
2023-11-15T15:11:19.399Z,97434.84
2023-11-15T15:13:46.084Z,97432.97
2023-11-15T15:16:13.170Z,97436.50
2023-11-15T15:18:42.513Z,97436.97
2023-11-15T15:21:11.002Z,97436.22
2023-11-15T15:23:37.878Z,97440.16
2023-11-15T15:26:08.610Z,97451.44
2023-11-15T15:28:35.640Z,97449.53
2023-11-15T15:31:06.969Z,97448.38
2023-11-15T15:33:38.827Z,97446.88
2023-11-15T15:36:10.339Z,97452.31
2023-11-15T15:38:37.303Z,97455.78
2023-11-15T15:41:08.632Z,97463.19
2023-11-15T15:43:37.637Z,97456.63
2023-11-15T15:46:04.515Z,97462.44
2023-11-15T15:48:33.634Z,97460.91
2023-11-15T15:51:06.466Z,97462.50
2023-11-15T15:53:37.757Z,97458.25
2023-11-15T15:56:05.247Z,97461.72
2023-11-15T15:58:34.420Z,97456.38
2023-11-15T16:01:01.054Z,97456.03
2023-11-15T16:03:28.311Z,97454.88
2023-11-15T16:05:55.052Z,97463.03
2023-11-15T16:08:21.699Z,97467.69
2023-11-15T16:10:51.275Z,97476.97
2023-11-15T16:13:20.091Z,97473.91
2023-11-15T16:15:47.125Z,97479.31
2023-11-15T16:18:16.390Z,97477.78
2023-11-15T16:20:43.070Z,97476.22
2023-11-15T16:23:11.933Z,97472.41
2023-11-15T16:25:38.923Z,97488.25
2023-11-15T16:28:07.757Z,97489.41
2023-11-15T16:30:37.041Z,97494.44
2023-11-15T16:33:04.072Z,97492.88
2023-11-15T16:35:33.634Z,97494.06
2023-11-15T16:38:00.283Z,97499.47
2023-11-15T16:40:29.801Z,97506.03
2023-11-15T16:42:56.411Z,97506.84
2023-11-15T16:45:25.560Z,97518.84
2023-11-15T16:47:54.599Z,97522.72
2023-11-15T16:50:21.727Z,97531.59
2023-11-15T16:52:51.304Z,97527.34
2023-11-15T16:55:20.385Z,97534.66
2023-11-15T16:57:47.011Z,97535.75
2023-11-15T17:00:14.648Z,97538.06
2023-11-15T17:02:45.408Z,97548.88
2023-11-15T17:05:14.646Z,97549.28
2023-11-15T17:07:41.230Z,97548.88
2023-11-15T17:10:10.324Z,97555.31
2023-11-15T17:12:36.946Z,97550.72
2023-11-15T17:15:04.255Z,97567.75
2023-11-15T17:17:33.540Z,97570.09
2023-11-15T17:20:01.343Z,97558.53
2023-11-15T17:22:28.008Z,97559.72
2023-11-15T17:24:56.826Z,97551.63
2023-11-15T17:27:25.992Z,97559.34
2023-11-15T17:29:53.388Z,97561.59
2023-11-15T17:32:23.657Z,97558.91
2023-11-15T17:34:53.117Z,97562.00
2023-11-15T17:37:19.743Z,97567.41
2023-11-15T17:39:48.916Z,97553.53
2023-11-15T17:42:17.810Z,97558.53
2023-11-15T17:44:46.912Z,97554.69
2023-11-15T17:47:18.003Z,97559.72
2023-11-15T17:49:45.279Z,97558.50
2023-11-15T17:52:14.423Z,97562.72
2023-11-15T17:54:41.033Z,97570.03
2023-11-15T17:57:07.678Z,97562.34
2023-11-15T17:59:34.660Z,97561.97
2023-11-15T18:02:05.341Z,97559.25
2023-11-15T18:04:36.764Z,97555.78
2023-11-15T18:07:04.434Z,97549.63
2023-11-15T18:09:33.206Z,97552.72
2023-11-15T18:12:03.720Z,97548.13
2023-11-15T18:14:32.796Z,97548.88
2023-11-15T18:17:04.536Z,97554.66
2023-11-15T18:19:31.171Z,97560.84
2023-11-15T18:22:00.039Z,97556.22
2023-11-15T18:24:26.760Z,97558.53
2023-11-15T18:26:53.924Z,97562.00
2023-11-15T18:29:22.825Z,97565.09
2023-11-15T18:31:52.917Z,97575.13
2023-11-15T18:34:20.261Z,97560.78
2023-11-15T18:36:46.987Z,97571.22
2023-11-15T18:39:16.347Z,97571.59
2023-11-15T18:41:44.701Z,97577.00
2023-11-15T18:44:16.943Z,97572.00
2023-11-15T18:46:44.529Z,97569.69
2023-11-15T18:49:14.570Z,97575.09
2023-11-15T18:51:43.509Z,97581.63
2023-11-15T18:54:12.449Z,97577.31
2023-11-15T18:56:39.530Z,97581.94
2023-11-15T18:59:08.442Z,97586.59
2023-11-15T19:01:38.049Z,97583.94
2023-11-15T19:04:09.072Z,97581.25
2023-11-15T19:06:35.834Z,97576.63
2023-11-15T19:09:02.551Z,97572.75
2023-11-15T19:11:32.075Z,97571.19
2023-11-15T19:13:59.261Z,97571.56
2023-11-15T19:16:28.878Z,97571.94
2023-11-15T19:18:56.621Z,97559.94
2023-11-15T19:21:25.541Z,97559.97
2023-11-15T19:23:52.492Z,97565.34
2023-11-15T19:26:25.294Z,97561.47
2023-11-15T19:28:54.413Z,97563.38
2023-11-15T19:31:25.022Z,97556.44
2023-11-15T19:33:53.750Z,97562.19
2023-11-15T19:36:23.086Z,97559.88
2023-11-15T19:38:49.788Z,97550.22
2023-11-15T19:41:22.752Z,97554.81
2023-11-15T19:43:49.429Z,97552.50
2023-11-15T19:46:19.318Z,97556.34
2023-11-15T19:48:47.219Z,97559.03
2023-11-15T19:51:37.002Z,97566.69
2023-11-15T19:54:08.379Z,97558.91
2023-11-15T19:56:35.671Z,97568.59
2023-11-15T19:59:05.043Z,97558.56
2023-11-15T20:01:34.270Z,97562.41
2023-11-15T20:04:05.316Z,97562.41
2023-11-15T20:06:32.987Z,97550.09
2023-11-15T20:09:00.415Z,97551.63
2023-11-15T20:11:29.598Z,97556.25
2023-11-15T20:13:58.564Z,97547.38
2023-11-15T20:16:28.629Z,97545.03
2023-11-15T20:18:55.819Z,97546.97
2023-11-15T20:21:24.732Z,97541.56
2023-11-15T20:23:53.519Z,97533.06
2023-11-15T20:26:20.198Z,97543.84
2023-11-15T20:28:49.092Z,97535.38
2023-11-15T20:31:15.741Z,97533.41
2023-11-15T20:33:44.757Z,97526.47
2023-11-15T20:36:11.832Z,97533.00
2023-11-15T20:38:43.397Z,97518.34
2023-11-15T20:41:11.561Z,97515.63
2023-11-15T20:43:42.678Z,97507.13
2023-11-15T20:46:17.668Z,97503.31
2023-11-15T20:48:47.254Z,97501.31
2023-11-15T20:51:16.776Z,97495.16
2023-11-15T20:53:43.618Z,97500.19
2023-11-15T20:56:10.683Z,97497.06
2023-11-15T20:58:37.894Z,97492.00
2023-11-15T21:01:07.818Z,97491.22
2023-11-15T21:03:37.242Z,97478.47
2023-11-15T21:06:07.337Z,97482.31
2023-11-15T21:08:38.479Z,97483.47
2023-11-15T21:11:13.202Z,97478.81
2023-11-15T21:13:44.958Z,97469.16
2023-11-15T21:16:19.310Z,97473.75
2023-11-15T21:18:52.311Z,97479.16
2023-11-15T21:21:22.418Z,97472.19
2023-11-15T21:23:51.478Z,97473.69
2023-11-15T21:26:18.586Z,97477.88
2023-11-15T21:28:48.760Z,97470.53
2023-11-15T21:31:17.833Z,97461.69
2023-11-15T21:33:44.468Z,97456.72
2023-11-15T21:36:15.061Z,97452.53
2023-11-15T21:38:41.729Z,97452.50
2023-11-15T21:41:11.845Z,97448.63
2023-11-15T21:43:38.782Z,97442.16
2023-11-15T21:46:06.232Z,97435.63
2023-11-15T21:48:34.363Z,97432.16
2023-11-15T21:51:01.476Z,97438.69
2023-11-15T21:53:32.308Z,97434.78
2023-11-15T21:56:03.766Z,97425.09
2023-11-15T21:58:33.144Z,97438.53
2023-11-15T22:01:02.128Z,97432.31
2023-11-15T22:03:28.812Z,97431.91
2023-11-15T22:05:57.632Z,97441.03
2023-11-15T22:08:24.696Z,97433.38
2023-11-15T22:10:54.884Z,97436.81
2023-11-15T22:13:24.170Z,97436.06
2023-11-15T22:15:53.289Z,97440.97
2023-11-15T22:18:20.441Z,97436.38
2023-11-15T22:20:49.916Z,97439.81
2023-11-15T22:23:18.795Z,97431.72
2023-11-15T22:25:45.823Z,97435.28
2023-11-15T22:28:14.683Z,97431.47
2023-11-15T22:30:44.208Z,97429.19
2023-11-15T22:33:15.517Z,97427.59
2023-11-15T22:35:49.066Z,97432.91
2023-11-15T22:38:16.999Z,97437.13
2023-11-15T22:40:43.782Z,97431.34
2023-11-15T22:43:14.438Z,97438.25
2023-11-15T22:45:41.714Z,97432.41
2023-11-15T22:48:08.618Z,97433.94
2023-11-15T22:50:35.286Z,97428.56
2023-11-15T22:53:04.867Z,97427.38
2023-11-15T22:55:31.593Z,97425.78
2023-11-15T22:58:00.544Z,97430.78
2023-11-15T23:00:37.758Z,97433.44
2023-11-15T23:03:10.498Z,97435.41
2023-11-15T23:05:39.294Z,97441.16
2023-11-15T23:08:09.172Z,97437.78
2023-11-15T23:10:44.241Z,97435.88
2023-11-15T23:13:11.130Z,97435.16
2023-11-15T23:15:37.968Z,97433.22
2023-11-15T23:18:07.467Z,97435.97
2023-11-15T23:20:39.481Z,97433.72
2023-11-15T23:23:08.513Z,97428.78
2023-11-15T23:25:35.216Z,97431.50
2023-11-15T23:28:01.927Z,97419.19
2023-11-15T23:30:36.142Z,97432.69
2023-11-15T23:33:03.072Z,97431.19
2023-11-15T23:35:34.354Z,97431.19
2023-11-15T23:38:01.626Z,97436.97
2023-11-15T23:40:31.129Z,97427.38
2023-11-15T23:42:57.888Z,97424.66
2023-11-15T23:45:26.628Z,97423.06
2023-11-15T23:47:56.430Z,97432.31
2023-11-15T23:50:24.255Z,97430.38
2023-11-15T23:52:54.365Z,97428.78
2023-11-15T23:55:22.134Z,97425.28
2023-11-15T23:57:51.537Z,97427.22
